Time;durP1;ratioP1;P1;durP2;ratioP2;P2;SDS_P1;SDS_P2;PMS_P1;PMS_P2;Temp;Humidity;BMP_temperature;BMP_pressure;BME280_temperature;BME280_humidity;BME280_pressure;Samples;Min_cycle;Max_cycle;Signal;HPM_P1;HPM_P2
2021/10/23 00:00:11;;;;;;;17.60;15.98;;;;;;;7.79;71.81;98966.53;2073570;28;20687;-73
2021/10/23 00:01:13;;;;;;;17.95;16.10;;;;;;;7.82;71.67;98983.78;2072758;28;20235;-73
2021/10/23 00:02:14;;;;;;;17.27;15.68;;;;;;;7.79;72.21;98963.09;2072681;28;20555;-73
2021/10/23 00:03:16;;;;;;;16.73;15.20;;;;;;;7.77;72.30;98976.66;2072659;28;20250;-72
2021/10/23 00:04:17;;;;;;;21.50;16.58;;;;;;;7.74;72.17;98982.53;2071971;28;20242;-72
2021/10/23 00:05:18;;;;;;;17.07;15.57;;;;;;;7.75;72.24;98964.72;2071910;28;20220;-73
2021/10/23 00:06:20;;;;;;;17.23;15.73;;;;;;;7.69;72.76;98990.53;2072559;28;20487;-73
2021/10/23 00:07:24;;;;;;;17.05;15.52;;;;;;;7.74;72.62;98976.44;2072680;28;20220;-73
2021/10/23 00:08:25;;;;;;;16.70;15.32;;;;;;;7.76;72.70;98988.34;2073847;28;20224;-73
2021/10/23 00:09:28;;;;;;;18.13;16.20;;;;;;;7.77;72.34;98989.13;2072571;28;20316;-72
2021/10/23 00:10:29;;;;;;;16.88;15.68;;;;;;;7.79;72.45;98979.81;2071956;28;20734;-72
2021/10/23 00:11:31;;;;;;;16.60;15.33;;;;;;;7.78;72.84;98982.75;2072046;28;20579;-72
2021/10/23 00:12:32;;;;;;;17.30;15.80;;;;;;;7.80;72.62;98992.00;2071648;28;20219;-73
2021/10/23 00:13:34;;;;;;;18.02;16.45;;;;;;;7.80;72.66;98984.03;2071852;28;20231;-72
2021/10/23 00:14:37;;;;;;;18.95;16.92;;;;;;;7.77;72.80;98984.63;2070316;28;20235;-73
2021/10/23 00:15:37;;;;;;;16.80;15.30;;;;;;;7.78;72.97;98994.16;2063330;28;20228;-73
2021/10/23 00:16:39;;;;;;;17.27;15.73;;;;;;;7.75;73.39;98988.63;2071856;28;20310;-73
2021/10/23 00:17:40;;;;;;;17.10;15.70;;;;;;;7.69;73.68;98987.06;2071775;28;20621;-73
2021/10/23 00:18:42;;;;;;;17.03;15.70;;;;;;;7.72;73.57;98987.31;2071776;28;20224;-72
2021/10/23 00:19:42;;;;;;;16.48;15.18;;;;;;;7.68;73.66;98988.94;2080072;28;20223;-73
2021/10/23 00:20:44;;;;;;;16.67;15.27;;;;;;;7.66;74.09;98993.75;2079884;28;20258;-73
2021/10/23 00:21:47;;;;;;;16.88;15.48;;;;;;;7.65;74.13;98989.50;2079964;28;20227;-72
2021/10/23 00:22:49;;;;;;;17.42;16.00;;;;;;;7.64;74.65;98999.34;2071327;28;20230;-72
2021/10/23 00:23:49;;;;;;;17.50;16.00;;;;;;;7.68;74.50;98993.47;2063436;28;20224;-73
2021/10/23 00:24:52;;;;;;;17.60;16.00;;;;;;;7.62;74.78;99011.28;2071882;28;20286;-73
2021/10/23 00:25:54;;;;;;;17.45;16.02;;;;;;;7.66;74.51;99028.25;2073660;28;20243;-73
2021/10/23 00:26:55;;;;;;;17.60;15.77;;;;;;;7.65;75.16;99000.13;2079427;28;20231;-73
2021/10/23 00:27:58;;;;;;;17.70;16.20;;;;;;;7.67;75.36;98987.38;2079899;28;20684;-73
2021/10/23 00:29:01;;;;;;;17.42;15.90;;;;;;;7.70;75.14;99001.94;2072431;28;20270;-73
2021/10/23 00:30:02;;;;;;;17.67;16.02;;;;;;;7.64;75.55;98996.69;2072423;28;20286;-73
2021/10/23 00:31:04;;;;;;;17.92;16.35;;;;;;;7.62;75.19;99017.38;2072573;28;20745;-72
2021/10/23 00:32:05;;;;;;;17.38;15.65;;;;;;;7.67;75.17;99021.09;2072468;28;20223;-72
2021/10/23 00:33:07;;;;;;;17.83;16.17;;;;;;;7.69;75.31;99010.97;2079710;28;20219;-72
2021/10/23 00:34:09;;;;;;;18.00;16.58;;;;;;;7.69;75.03;99017.06;2079565;28;20230;-73
2021/10/23 00:35:12;;;;;;;17.90;16.30;;;;;;;7.73;75.10;99015.47;2072457;28;20659;-73
2021/10/23 00:36:13;;;;;;;18.05;16.40;;;;;;;7.73;75.37;99023.44;2072505;28;20220;-73
2021/10/23 00:37:15;;;;;;;17.27;15.90;;;;;;;7.71;75.08;99014.94;2072475;28;20693;-73
2021/10/23 00:38:17;;;;;;;17.65;16.00;;;;;;;7.76;75.48;99016.78;2072510;28;20220;-72
2021/10/23 00:39:18;;;;;;;16.60;15.20;;;;;;;7.77;74.67;99018.34;2071675;28;20227;-72
2021/10/23 00:40:21;;;;;;;17.30;15.53;;;;;;;7.79;75.02;99032.13;2071651;28;20224;-72
2021/10/23 00:41:23;;;;;;;16.83;15.52;;;;;;;7.81;75.00;99028.13;2071228;28;20224;-73
2021/10/23 00:42:25;;;;;;;17.65;15.90;;;;;;;7.83;74.78;99038.50;2071618;28;20234;-73
2021/10/23 00:43:26;;;;;;;17.60;15.88;;;;;;;7.86;74.40;99006.84;2072380;28;20721;-72
2021/10/23 00:44:29;;;;;;;16.63;15.13;;;;;;;7.87;74.42;99010.28;2079415;28;20681;-72
2021/10/23 00:45:30;;;;;;;17.13;15.45;;;;;;;7.86;74.63;99014.03;2079490;28;20227;-73
2021/10/23 00:46:32;;;;;;;16.83;15.53;;;;;;;7.85;74.94;99009.78;2079835;28;20223;-72
2021/10/23 00:47:33;;;;;;;17.88;16.10;;;;;;;7.86;74.98;99012.16;2071583;28;20231;-73
2021/10/23 00:48:36;;;;;;;17.00;15.68;;;;;;;7.82;75.19;99002.38;2071560;28;20223;-72
2021/10/23 00:49:39;;;;;;;17.73;16.25;;;;;;;7.82;75.31;98995.22;2087314;28;20327;-73
2021/10/23 00:50:41;;;;;;;17.48;15.95;;;;;;;7.77;75.72;99003.22;2072055;28;20224;-72
2021/10/23 00:51:42;;;;;;;17.05;15.68;;;;;;;7.72;76.07;99013.06;2072351;28;20315;-72
2021/10/23 00:52:44;;;;;;;17.20;15.70;;;;;;;7.73;75.97;99004.84;2079732;28;20230;-73
2021/10/23 00:53:45;;;;;;;17.13;15.82;;;;;;;7.70;76.36;99002.72;2079877;28;20694;-73
2021/10/23 00:54:47;;;;;;;16.63;15.43;;;;;;;7.67;76.54;99013.13;2072385;28;20302;-72
2021/10/23 00:55:50;;;;;;;17.13;15.73;;;;;;;7.65;76.31;99016.06;2071592;28;20220;-72
2021/10/23 00:56:52;;;;;;;17.35;15.85;;;;;;;7.65;76.73;99010.75;2071708;28;20220;-72
2021/10/23 00:57:53;;;;;;;18.05;16.55;;;;;;;7.60;77.18;99018.75;2073754;28;20625;-73
2021/10/23 00:58:55;;;;;;;17.30;15.90;;;;;;;7.62;76.91;99008.63;2072368;28;20255;-73
2021/10/23 00:59:55;;;;;;;16.90;15.63;;;;;;;7.63;77.24;99023.50;2071470;28;20243;-73
2021/10/23 01:00:57;;;;;;;16.83;15.53;;;;;;;7.64;77.03;99023.25;2071638;28;20319;-72
2021/10/23 01:01:59;;;;;;;17.02;15.50;;;;;;;7.60;76.95;99018.75;2072293;28;20710;-72
2021/10/23 01:03:01;;;;;;;16.73;15.55;;;;;;;7.59;77.53;99019.81;2072306;28;20575;-72
2021/10/23 01:04:02;;;;;;;17.90;16.00;;;;;;;7.55;77.65;99018.78;2071590;28;20227;-73
2021/10/23 01:05:06;;;;;;;17.75;16.17;;;;;;;7.59;77.75;99041.06;2071628;28;20220;-73
2021/10/23 01:06:08;;;;;;;16.88;15.48;;;;;;;7.63;77.39;99028.78;2071935;28;20667;-73
2021/10/23 01:07:12;;;;;;;17.05;15.73;;;;;;;7.61;77.90;99030.94;2072236;28;20224;-72
2021/10/23 01:08:25;;;;;;;17.25;15.85;;;;;;;7.60;77.95;99050.59;2071364;28;20606;-72
2021/10/23 01:09:27;;;;;;;17.45;16.02;;;;;;;7.57;78.15;99040.53;2072633;28;20228;-73
2021/10/23 01:10:29;;;;;;;17.38;15.98;;;;;;;7.54;78.38;99038.44;2079577;28;20239;-73
2021/10/23 01:11:32;;;;;;;17.17;15.73;;;;;;;7.57;78.86;99036.03;2079612;28;20230;-72
2021/10/23 01:12:33;;;;;;;17.48;16.00;;;;;;;7.55;79.12;99037.34;2079639;28;20223;-72
2021/10/23 01:13:34;;;;;;;17.27;15.97;;;;;;;7.49;79.53;99043.78;2079570;28;20297;-73
2021/10/23 01:14:35;;;;;;;17.27;15.98;;;;;;;7.51;79.36;99053.06;2071001;28;20212;-72
2021/10/23 01:15:38;;;;;;;17.77;15.97;;;;;;;7.51;79.49;99042.44;2071603;28;20243;-72
2021/10/23 01:16:40;;;;;;;17.63;15.80;;;;;;;7.45;79.52;99061.31;2071057;28;20776;-73
2021/10/23 01:17:41;;;;;;;17.10;15.75;;;;;;;7.51;80.10;99045.09;2071581;28;20670;-72
2021/10/23 01:18:43;;;;;;;17.05;15.65;;;;;;;7.50;79.96;99042.72;2072019;28;20630;-72
2021/10/23 01:19:50;;;;;;;17.63;15.93;;;;;;;7.42;80.63;99041.44;2072071;28;20227;-72
2021/10/23 01:20:50;;;;;;;17.38;15.80;;;;;;;7.41;80.63;99052.34;2079621;28;20231;-72
2021/10/23 01:21:53;;;;;;;17.63;15.93;;;;;;;7.39;80.97;99057.13;2079673;28;20779;-73
2021/10/23 01:22:55;;;;;;;22.73;16.25;;;;;;;7.36;81.35;99056.59;2079100;28;20305;-73
2021/10/23 01:23:57;;;;;;;17.30;15.68;;;;;;;7.38;81.31;99064.28;2079685;28;20227;-72
2021/10/23 01:24:58;;;;;;;17.75;16.17;;;;;;;7.36;81.25;99066.41;2073388;28;20228;-74
2021/10/23 01:26:00;;;;;;;17.90;16.27;;;;;;;7.41;81.17;99058.44;2071157;28;20268;-73
2021/10/23 01:27:00;;;;;;;17.00;15.50;;;;;;;7.40;81.19;99066.66;2071489;28;20220;-73
2021/10/23 01:28:04;;;;;;;16.47;15.37;;;;;;;7.31;81.98;99067.25;2072136;28;20235;-73
2021/10/23 01:29:06;;;;;;;17.35;15.68;;;;;;;7.30;82.73;99070.19;2072207;28;20224;-72
2021/10/23 01:30:11;;;;;;;17.77;16.20;;;;;;;7.32;82.48;99083.97;2072766;28;20220;-76
2021/10/23 01:31:12;;;;;;;17.63;16.17;;;;;;;7.32;82.22;99076.00;2071535;28;20244;-73
2021/10/23 01:32:14;;;;;;;17.07;15.80;;;;;;;7.33;82.41;99077.59;2079590;28;20231;-73
2021/10/23 01:33:15;;;;;;;17.52;16.10;;;;;;;7.32;82.53;99082.09;2079698;28;20442;-72
2021/10/23 01:34:18;;;;;;;17.77;15.98;;;;;;;7.34;82.45;99085.28;2071458;28;20223;-73
2021/10/23 01:35:22;;;;;;;17.05;15.63;;;;;;;7.38;82.32;99077.53;2071143;28;20251;-73
2021/10/23 01:36:23;;;;;;;17.80;15.95;;;;;;;7.39;82.91;99073.84;2080771;28;20743;-73
2021/10/23 01:37:36;;;;;;;17.20;15.70;;;;;;;7.42;82.69;99083.09;2072148;28;20682;-73
2021/10/23 01:38:38;;;;;;;17.80;16.20;;;;;;;7.44;82.33;99079.09;2073592;28;20459;-73
2021/10/23 01:39:40;;;;;;;16.50;15.10;;;;;;;7.43;82.67;99082.03;2071941;28;20234;-72
2021/10/23 01:40:40;;;;;;;17.52;16.00;;;;;;;7.41;82.76;99089.50;2071974;28;20251;-72
2021/10/23 01:41:43;;;;;;;16.80;15.43;;;;;;;7.39;83.28;99097.72;2072136;28;20413;-72
2021/10/23 01:42:44;;;;;;;16.90;15.70;;;;;;;7.38;83.64;99098.78;2071950;28;20223;-72
2021/10/23 01:43:46;;;;;;;17.17;15.80;;;;;;;7.36;83.92;99087.66;2070877;28;20711;-72
2021/10/23 01:44:48;;;;;;;17.95;15.90;;;;;;;7.32;84.44;99113.94;2071316;28;20710;-72
2021/10/23 01:45:52;;;;;;;17.13;15.60;;;;;;;7.35;84.16;99094.03;2063712;28;20252;-72
2021/10/23 01:46:53;;;;;;;18.45;16.35;;;;;;;7.38;84.09;99098.78;2072743;28;20236;-73
2021/10/23 01:47:55;;;;;;;17.17;15.80;;;;;;;7.36;84.12;99098.25;2072155;28;20247;-73
2021/10/23 01:48:56;;;;;;;17.50;15.80;;;;;;;7.35;84.71;99104.63;2079463;28;20227;-73
2021/10/23 01:49:57;;;;;;;17.80;16.20;;;;;;;7.28;85.08;99102.28;2071263;28;20323;-72
2021/10/23 01:51:00;;;;;;;17.42;15.82;;;;;;;7.25;85.69;99108.13;2071445;28;20224;-73
2021/10/23 01:52:02;;;;;;;17.20;16.00;;;;;;;7.21;85.87;99090.38;2072189;28;20670;-72
2021/10/23 01:53:03;;;;;;;17.35;15.88;;;;;;;7.18;86.57;99118.25;2072152;28;20227;-72
2021/10/23 01:54:05;;;;;;;16.93;15.37;;;;;;;7.18;86.82;99107.63;2072075;28;20218;-72
2021/10/23 01:55:08;;;;;;;16.50;15.40;;;;;;;7.17;86.85;99121.19;2072959;28;20239;-72
2021/10/23 01:56:10;;;;;;;16.98;15.43;;;;;;;7.18;86.91;99131.50;2075011;28;20235;-72
2021/10/23 01:57:10;;;;;;;16.95;15.50;;;;;;;7.14;87.31;99121.72;2072529;28;20580;-72
2021/10/23 01:58:15;;;;;;;18.53;15.87;;;;;;;7.08;87.71;99113.78;2072650;28;20247;-73
2021/10/23 01:59:16;;;;;;;16.77;15.60;;;;;;;7.09;87.88;99119.88;2072795;28;20729;-72
2021/10/23 02:00:19;;;;;;;17.60;15.95;;;;;;;7.04;88.33;99122.56;2072774;28;20251;-72
2021/10/23 02:01:19;;;;;;;17.52;16.23;;;;;;;7.06;88.73;99136.34;2072898;28;20223;-72
2021/10/23 02:02:21;;;;;;;16.77;15.53;;;;;;;7.05;88.77;99121.50;2072887;28;20248;-72
2021/10/23 02:03:22;;;;;;;17.08;15.68;;;;;;;7.01;89.15;99115.91;2072491;28;20325;-74
2021/10/23 02:04:24;;;;;;;18.03;15.63;;;;;;;7.02;89.33;99135.28;2079122;28;20219;-73
2021/10/23 02:05:25;;;;;;;17.77;16.23;;;;;;;6.98;89.59;99126.28;2080866;28;20234;-72
2021/10/23 02:06:28;;;;;;;17.60;16.20;;;;;;;6.96;90.49;99128.44;2080976;28;20238;-73
2021/10/23 02:07:30;;;;;;;18.23;16.52;;;;;;;6.96;91.00;99136.38;2081822;28;20223;-73
2021/10/23 02:08:32;;;;;;;17.25;15.70;;;;;;;6.97;91.30;99135.31;2081667;28;20582;-73
2021/10/23 02:10:27;;;;;;;17.20;15.85;;;;;;;6.90;91.74;99137.44;2080517;28;20329;-72
2021/10/23 02:11:27;;;;;;;17.30;15.70;;;;;;;6.86;92.25;99145.13;2072576;28;20324;-73
2021/10/23 02:12:31;;;;;;;16.50;15.27;;;;;;;6.87;92.50;99148.59;2080548;28;20242;-73
2021/10/23 02:13:33;;;;;;;17.27;15.77;;;;;;;6.90;92.53;99148.06;2072989;28;20664;-72
2021/10/23 02:14:34;;;;;;;17.65;16.10;;;;;;;6.87;93.05;99138.00;2072706;28;20224;-72
2021/10/23 02:15:35;;;;;;;17.17;15.93;;;;;;;6.84;93.56;99154.44;2072709;28;20220;-72
2021/10/23 02:16:37;;;;;;;17.37;15.73;;;;;;;6.81;94.15;99153.13;2072842;28;20224;-72
2021/10/23 02:17:37;;;;;;;17.73;16.20;;;;;;;6.87;94.29;99151.25;2074074;28;20595;-72
2021/10/23 02:18:41;;;;;;;17.13;15.33;;;;;;;6.83;94.12;99150.19;2073428;28;20306;-73
2021/10/23 02:19:42;;;;;;;17.27;15.73;;;;;;;6.79;94.64;99144.66;2073301;28;20242;-73
2021/10/23 02:20:44;;;;;;;17.47;15.73;;;;;;;6.80;94.84;99154.19;2073558;28;20247;-72
2021/10/23 02:21:46;;;;;;;16.50;15.30;;;;;;;6.80;95.54;99165.59;2073415;28;20482;-73
2021/10/23 02:22:48;;;;;;;17.63;15.90;;;;;;;6.82;95.37;99157.34;2080321;28;20235;-72
2021/10/23 02:23:49;;;;;;;16.85;15.45;;;;;;;6.83;95.72;99156.28;2080752;28;20223;-72
2021/10/23 02:24:51;;;;;;;17.87;16.03;;;;;;;6.87;95.68;99160.00;2073387;28;20239;-72
2021/10/23 02:25:52;;;;;;;17.05;15.45;;;;;;;6.85;95.92;99171.94;2072202;28;20235;-75
2021/10/23 02:26:54;;;;;;;16.80;15.43;;;;;;;6.88;96.20;99182.81;2072574;28;20227;-73
2021/10/23 02:27:54;;;;;;;17.48;15.80;;;;;;;6.86;96.73;99178.81;2072715;28;20231;-73
2021/10/23 02:28:56;;;;;;;16.50;15.10;;;;;;;6.83;97.56;99163.44;2080684;28;20247;-73
2021/10/23 02:29:57;;;;;;;17.35;15.75;;;;;;;6.87;98.17;99169.81;2080797;28;20238;-73
2021/10/23 02:31:00;;;;;;;16.73;15.43;;;;;;;6.84;99.11;99165.84;2073225;28;20723;-73
2021/10/23 02:32:00;;;;;;;16.90;15.60;;;;;;;6.86;99.93;99165.56;2071986;28;20769;-72
2021/10/23 02:33:05;;;;;;;17.90;16.40;;;;;;;6.84;100.00;99160.53;2072665;28;20579;-72
2021/10/23 02:34:06;;;;;;;17.50;15.80;;;;;;;6.90;100.00;99179.88;2072455;28;20224;-72
2021/10/23 02:35:08;;;;;;;17.63;15.90;;;;;;;6.88;100.00;99171.41;2074203;28;20335;-74
2021/10/23 02:36:10;;;;;;;17.13;15.50;;;;;;;6.85;100.00;99187.84;2079665;28;20231;-73
2021/10/23 02:37:13;;;;;;;17.42;15.90;;;;;;;6.84;100.00;99160.53;2080940;28;20322;-72
2021/10/23 02:38:14;;;;;;;17.45;15.88;;;;;;;6.83;100.00;99174.06;2072527;28;20330;-72
2021/10/23 02:39:16;;;;;;;16.87;15.57;;;;;;;6.82;100.00;99173.25;2072473;28;20220;-73
2021/10/23 02:40:17;;;;;;;17.48;16.08;;;;;;;6.82;100.00;99162.66;2080686;28;20265;-72
2021/10/23 02:41:24;;;;;;;17.90;16.05;;;;;;;6.84;100.00;99159.75;2081099;28;20223;-72
2021/10/23 02:42:25;;;;;;;17.05;15.63;;;;;;;6.84;100.00;99162.38;2081117;28;20234;-73
2021/10/23 02:43:27;;;;;;;17.90;16.33;;;;;;;6.78;100.00;99173.03;2080685;28;20237;-73
2021/10/23 02:44:28;;;;;;;17.80;16.20;;;;;;;6.75;100.00;99172.75;2080686;28;20243;-72
2021/10/23 02:45:30;;;;;;;18.80;17.13;;;;;;;6.75;100.00;99215.97;2081440;28;20290;-73
2021/10/23 02:46:31;;;;;;;18.02;16.42;;;;;;;6.77;100.00;99175.91;2081351;28;20227;-72
2021/10/23 02:47:35;;;;;;;17.77;16.25;;;;;;;6.74;100.00;99187.84;2080216;28;20707;-73
2021/10/23 02:48:37;;;;;;;17.80;16.10;;;;;;;6.73;100.00;99178.31;2080888;28;20239;-73
2021/10/23 02:49:38;;;;;;;16.98;15.63;;;;;;;6.77;100.00;99207.75;2088423;28;20625;-73
2021/10/23 02:50:40;;;;;;;17.43;15.93;;;;;;;6.78;100.00;99188.94;2081364;28;20246;-72
2021/10/23 02:51:41;;;;;;;17.35;15.80;;;;;;;6.75;100.00;99188.66;2081429;28;20223;-72
2021/10/23 02:52:44;;;;;;;17.50;15.82;;;;;;;6.73;100.00;99191.56;2081263;28;20223;-73
2021/10/23 02:53:45;;;;;;;17.15;15.77;;;;;;;6.73;100.00;99199.53;2081279;28;20293;-73
2021/10/23 02:54:50;;;;;;;18.02;16.00;;;;;;;6.73;100.00;99202.19;2081363;28;20549;-72
2021/10/23 02:55:51;;;;;;;18.23;16.10;;;;;;;6.73;100.00;99212.78;2081250;28;20254;-73
2021/10/23 02:56:54;;;;;;;18.63;16.83;;;;;;;6.72;100.00;99229.75;2072054;28;20232;-72
2021/10/23 02:57:56;;;;;;;17.70;16.13;;;;;;;6.73;100.00;99207.50;2072444;28;20235;-72
2021/10/23 02:58:58;;;;;;;17.23;15.60;;;;;;;6.71;100.00;99219.44;2073185;28;20248;-73
2021/10/23 02:59:59;;;;;;;17.08;15.52;;;;;;;6.67;100.00;99208.53;2073227;28;20710;-73
2021/10/23 03:01:02;;;;;;;17.73;16.07;;;;;;;6.67;100.00;99218.34;2072551;28;20639;-72
2021/10/23 03:02:03;;;;;;;17.83;16.33;;;;;;;6.63;100.00;99228.72;2072519;28;20601;-72
2021/10/23 03:03:05;;;;;;;18.47;16.80;;;;;;;6.61;100.00;99232.69;2072055;28;20328;-72
2021/10/23 03:04:06;;;;;;;17.90;16.33;;;;;;;6.58;100.00;99228.69;2072547;28;20220;-72
2021/10/23 03:05:08;;;;;;;18.13;16.63;;;;;;;6.55;100.00;99231.88;2064510;28;20777;-72
2021/10/23 03:06:10;;;;;;;18.23;16.63;;;;;;;6.51;100.00;99225.50;2065060;28;20229;-73
2021/10/23 03:07:11;;;;;;;17.83;16.30;;;;;;;6.50;100.00;99234.53;2063959;28;20227;-73
2021/10/23 03:08:15;;;;;;;17.97;16.47;;;;;;;6.51;100.00;99225.50;2080431;28;20781;-73
2021/10/23 03:09:17;;;;;;;17.58;16.17;;;;;;;6.51;100.00;99236.09;2088005;28;20226;-73
2021/10/23 03:10:19;;;;;;;17.52;16.27;;;;;;;6.44;100.00;99225.78;2073067;28;20307;-72
2021/10/23 03:11:20;;;;;;;17.23;15.93;;;;;;;6.41;100.00;99233.47;2073079;28;20224;-72
2021/10/23 03:12:22;;;;;;;17.67;16.17;;;;;;;6.40;100.00;99221.28;2073147;28;20687;-73
2021/10/23 03:13:22;;;;;;;17.58;16.02;;;;;;;6.37;100.00;99241.16;2072813;28;20228;-74
2021/10/23 03:14:25;;;;;;;17.23;15.93;;;;;;;6.29;100.00;99222.34;2073123;28;20718;-73
2021/10/23 03:15:26;;;;;;;17.33;15.88;;;;;;;6.26;100.00;99231.59;2073089;28;20228;-72
2021/10/23 03:16:28;;;;;;;17.37;15.80;;;;;;;6.23;100.00;99230.25;2073112;28;20683;-73
2021/10/23 03:17:29;;;;;;;17.23;15.80;;;;;;;6.21;100.00;99226.28;2072220;28;20642;-72
2021/10/23 03:18:31;;;;;;;17.48;15.98;;;;;;;6.24;100.00;99239.78;2072358;28;20303;-73
2021/10/23 03:19:32;;;;;;;17.17;15.77;;;;;;;6.24;100.00;99253.03;2073033;28;20223;-72
2021/10/23 03:20:34;;;;;;;17.17;15.50;;;;;;;6.24;100.00;99239.00;2073071;28;20220;-72
2021/10/23 03:21:35;;;;;;;17.42;16.00;;;;;;;6.19;100.00;99231.84;2073219;28;20216;-72
2021/10/23 03:22:37;;;;;;;17.38;15.82;;;;;;;6.19;100.00;99237.16;2073211;28;20248;-72
2021/10/23 03:23:39;;;;;;;17.77;16.13;;;;;;;6.18;100.00;99232.91;2081771;28;20227;-73
2021/10/23 03:24:41;;;;;;;17.38;15.98;;;;;;;6.11;100.00;99242.97;2080465;28;20609;-72
2021/10/23 03:25:42;;;;;;;17.35;15.95;;;;;;;6.09;100.00;99245.09;2072906;28;20829;-72
2021/10/23 03:26:44;;;;;;;18.08;16.10;;;;;;;6.09;100.00;99245.09;2073035;28;20255;-73
2021/10/23 03:27:45;;;;;;;21.02;16.15;;;;;;;6.03;100.00;99246.13;2072140;28;20219;-73
2021/10/23 03:28:49;;;;;;;16.97;15.73;;;;;;;6.03;100.00;99248.78;2072098;28;20578;-73
2021/10/23 03:29:51;;;;;;;17.70;16.30;;;;;;;6.00;100.00;99240.56;2072390;28;20228;-72
2021/10/23 03:30:53;;;;;;;17.15;15.80;;;;;;;5.98;100.00;99243.44;2072444;28;20236;-75
2021/10/23 03:31:54;;;;;;;17.15;15.77;;;;;;;5.92;100.00;99244.50;2072913;28;20766;-72
2021/10/23 03:32:58;;;;;;;18.25;16.50;;;;;;;5.94;100.00;99245.03;2072880;28;20239;-73
2021/10/23 03:34:00;;;;;;;18.27;16.57;;;;;;;5.95;100.00;99249.28;2080405;28;20224;-72
2021/10/23 03:35:01;;;;;;;18.33;16.23;;;;;;;5.95;100.00;99254.56;2080352;28;20281;-72
2021/10/23 03:36:05;;;;;;;18.33;16.17;;;;;;;5.94;100.00;99253.00;2079948;28;20223;-72
2021/10/23 03:37:08;;;;;;;17.55;16.20;;;;;;;5.96;100.00;99256.16;2079899;28;20258;-73
2021/10/23 03:38:09;;;;;;;18.05;16.50;;;;;;;5.94;100.00;99247.69;2074300;28;20227;-73
2021/10/23 03:39:13;;;;;;;18.23;16.70;;;;;;;5.90;100.00;99251.88;2072069;28;20231;-72
2021/10/23 03:40:13;;;;;;;17.10;15.70;;;;;;;5.83;100.00;99256.63;2064162;28;20220;-72
2021/10/23 03:41:15;;;;;;;17.50;16.13;;;;;;;5.84;100.00;99263.53;2071898;28;20785;-72
2021/10/23 03:42:16;;;;;;;17.48;16.13;;;;;;;5.81;100.00;99253.44;2072677;28;20270;-72
2021/10/23 03:43:18;;;;;;;19.07;17.27;;;;;;;5.80;100.00;99252.63;2080175;28;20266;-72
2021/10/23 03:44:21;;;;;;;17.73;16.40;;;;;;;5.77;100.00;99258.47;2080202;28;20717;-72
2021/10/23 03:45:24;;;;;;;18.70;17.10;;;;;;;5.77;100.00;99249.72;2071633;28;20224;-73
2021/10/23 03:46:25;;;;;;;18.98;17.35;;;;;;;5.76;100.00;99253.44;2072125;28;20235;-72
2021/10/23 03:47:26;;;;;;;18.50;17.10;;;;;;;5.76;100.00;99261.38;2072801;28;20685;-73
2021/10/23 03:48:27;;;;;;;18.48;16.95;;;;;;;5.73;100.00;99256.56;2071928;28;20232;-73
2021/10/23 03:49:30;;;;;;;18.00;16.37;;;;;;;5.77;100.00;99265.59;2063960;28;20224;-73
2021/10/23 03:50:34;;;;;;;19.45;17.52;;;;;;;5.77;100.00;99278.84;2072082;28;20301;-72
2021/10/23 03:51:36;;;;;;;18.52;16.85;;;;;;;5.75;100.00;99270.38;2072064;28;20230;-72
2021/10/23 03:52:38;;;;;;;18.42;16.85;;;;;;;5.73;100.00;99269.81;2065619;28;20232;-72
2021/10/23 03:53:39;;;;;;;17.60;16.20;;;;;;;5.70;100.00;99279.06;2072069;28;20233;-73
2021/10/23 03:54:41;;;;;;;17.92;16.45;;;;;;;5.74;100.00;99268.78;2078610;28;20227;-72
2021/10/23 03:55:43;;;;;;;17.35;16.02;;;;;;;5.68;100.00;99262.66;2080217;28;20227;-72
2021/10/23 03:56:44;;;;;;;18.05;16.55;;;;;;;5.64;100.00;99259.72;2073855;28;20586;-72
2021/10/23 03:57:47;;;;;;;18.20;16.60;;;;;;;5.70;100.00;99270.34;2072769;28;20244;-73
2021/10/23 03:58:48;;;;;;;17.77;16.30;;;;;;;5.63;100.00;99267.91;2072853;28;20278;-72
2021/10/23 03:59:50;;;;;;;17.92;16.60;;;;;;;5.62;100.00;99272.41;2071558;28;20298;-72
2021/10/23 04:00:51;;;;;;;18.02;16.38;;;;;;;5.61;100.00;99270.03;2072032;28;20224;-72
2021/10/23 04:01:53;;;;;;;18.57;16.83;;;;;;;5.60;100.00;99282.47;2071584;28;20236;-73
2021/10/23 04:02:54;;;;;;;18.25;16.60;;;;;;;5.56;100.00;99276.13;2071959;28;20318;-73
2021/10/23 04:03:56;;;;;;;17.60;16.20;;;;;;;5.58;100.00;99276.66;2072649;28;20240;-73
2021/10/23 04:04:56;;;;;;;17.45;15.85;;;;;;;5.56;100.00;99276.13;2072606;28;20757;-72
2021/10/23 04:05:59;;;;;;;17.63;15.90;;;;;;;5.58;100.00;99284.59;2080007;28;20242;-72
2021/10/23 04:07:00;;;;;;;17.08;15.77;;;;;;;5.55;100.00;99273.69;2080090;28;20297;-72
2021/10/23 04:08:02;;;;;;;23.17;16.30;;;;;;;5.54;100.00;99282.69;2072758;28;20224;-73
2021/10/23 04:09:03;;;;;;;17.10;15.48;;;;;;;5.57;100.00;99288.28;2072673;28;20567;-73
2021/10/23 04:10:07;;;;;;;17.23;15.82;;;;;;;5.56;100.00;99277.94;2072677;28;20678;-72
2021/10/23 04:11:08;;;;;;;17.13;15.80;;;;;;;5.50;100.00;99281.63;2073264;28;20232;-73
2021/10/23 04:12:12;;;;;;;17.65;15.88;;;;;;;5.43;100.00;99273.91;2080133;28;20249;-72
2021/10/23 04:13:13;;;;;;;17.38;15.90;;;;;;;5.46;100.00;99281.34;2087926;28;20277;-73
2021/10/23 04:14:15;;;;;;;16.10;15.00;;;;;;;5.49;100.00;99282.69;2078994;28;20310;-73
2021/10/23 04:15:16;;;;;;;18.15;15.90;;;;;;;5.45;100.00;99294.81;2071987;28;20224;-73
2021/10/23 04:16:17;;;;;;;17.17;15.50;;;;;;;5.42;100.00;99295.34;2072653;28;20310;-72
2021/10/23 04:17:18;;;;;;;16.73;15.43;;;;;;;5.43;100.00;99284.50;2072466;28;20216;-72
2021/10/23 04:18:20;;;;;;;18.80;16.97;;;;;;;5.43;100.00;99295.09;2072327;28;20250;-72
2021/10/23 04:19:21;;;;;;;16.98;15.57;;;;;;;5.44;100.00;99295.88;2072565;28;20215;-73
2021/10/23 04:20:23;;;;;;;17.40;15.85;;;;;;;5.45;100.00;99302.75;2074136;28;20250;-74
2021/10/23 04:21:24;;;;;;;17.42;15.73;;;;;;;5.42;100.00;99304.06;2072623;28;20224;-73
2021/10/23 04:22:25;;;;;;;16.80;15.40;;;;;;;5.40;100.00;99306.19;2071757;28;20299;-73
2021/10/23 04:23:26;;;;;;;16.75;15.50;;;;;;;5.35;100.00;99296.34;2071810;28;20238;-72
2021/10/23 04:24:28;;;;;;;17.30;16.03;;;;;;;5.31;100.00;99295.28;2079896;28;20227;-73
2021/10/23 04:25:33;;;;;;;18.15;16.52;;;;;;;5.33;100.00;99300.31;2071759;28;20227;-72
2021/10/23 04:26:36;;;;;;;18.52;16.98;;;;;;;5.29;100.00;99304.50;2071786;28;20234;-73
2021/10/23 04:27:37;;;;;;;18.15;16.75;;;;;;;5.27;100.00;99318.00;2074098;28;20224;-74
2021/10/23 04:28:38;;;;;;;18.13;16.63;;;;;;;5.27;100.00;99311.91;2072567;28;20235;-74
2021/10/23 04:29:39;;;;;;;19.20;17.38;;;;;;;5.32;100.00;99314.59;2071281;28;20277;-73
2021/10/23 04:30:41;;;;;;;18.03;16.27;;;;;;;5.32;100.00;99315.41;2071733;28;20278;-73
2021/10/23 04:31:44;;;;;;;18.75;16.95;;;;;;;5.28;100.00;99316.16;2071740;28;20266;-72
2021/10/23 04:32:47;;;;;;;19.05;17.17;;;;;;;5.23;100.00;99321.41;2063903;28;20224;-72
2021/10/23 04:33:49;;;;;;;18.23;16.83;;;;;;;5.19;100.00;99315.81;2071735;28;20561;-72
2021/10/23 04:34:50;;;;;;;17.97;16.63;;;;;;;5.17;100.00;99319.78;2072451;28;20328;-72
2021/10/23 04:35:51;;;;;;;18.48;16.98;;;;;;;5.17;100.00;99317.94;2072570;28;20224;-72
2021/10/23 04:36:53;;;;;;;18.70;16.83;;;;;;;5.15;100.00;99320.03;2071361;28;20231;-74
2021/10/23 04:37:53;;;;;;;18.42;16.80;;;;;;;5.15;100.00;99319.25;2071626;28;20239;-72
2021/10/23 04:38:55;;;;;;;18.70;16.80;;;;;;;5.17;100.00;99323.22;2079049;28;20239;-73
2021/10/23 04:39:56;;;;;;;18.63;16.70;;;;;;;5.16;100.00;99320.84;2079837;28;20227;-73
2021/10/23 04:41:00;;;;;;;18.90;17.05;;;;;;;5.18;100.00;99329.31;2071531;28;20231;-73
2021/10/23 04:42:01;;;;;;;18.38;16.70;;;;;;;5.21;100.00;99326.97;2079636;28;20345;-72
2021/10/23 04:43:03;;;;;;;18.63;16.80;;;;;;;5.23;100.00;99332.00;2073153;28;20278;-72
2021/10/23 04:44:04;;;;;;;18.25;16.55;;;;;;;5.24;100.00;99328.31;2071198;28;20295;-72
2021/10/23 04:45:07;;;;;;;17.92;16.50;;;;;;;5.24;100.00;99329.09;2063404;28;20595;-72
2021/10/23 04:46:08;;;;;;;18.13;16.65;;;;;;;5.25;100.00;99329.91;2071357;28;20232;-72
2021/10/23 04:47:10;;;;;;;18.42;16.92;;;;;;;5.26;100.00;99331.47;2079222;28;20248;-73